sensor_id;sensor_type;location;lat;lon;timestamp;P1;durP1;ratioP1;P2;durP2;ratioP2
38935;SDS011;25541;47.458;9.644;2022-12-18T05:03:50;17.45;;;6.30;;
38935;SDS011;25541;47.458;9.644;2022-12-18T05:06:16;19.30;;;6.47;;
38935;SDS011;25541;47.458;9.644;2022-12-18T05:08:42;21.00;;;6.82;;
38935;SDS011;25541;47.458;9.644;2022-12-18T05:11:09;18.30;;;7.13;;
38935;SDS011;25541;47.458;9.644;2022-12-18T05:13:39;24.30;;;7.38;;
38935;SDS011;25541;47.458;9.644;2022-12-18T05:16:04;27.10;;;7.85;;
38935;SDS011;25541;47.458;9.644;2022-12-18T05:18:30;26.33;;;8.02;;
38935;SDS011;25541;47.458;9.644;2022-12-18T05:20:56;23.02;;;8.15;;
38935;SDS011;25541;47.458;9.644;2022-12-18T05:23:23;29.33;;;8.75;;
38935;SDS011;25541;47.458;9.644;2022-12-18T05:28:19;27.60;;;8.70;;
38935;SDS011;25541;47.458;9.644;2022-12-18T05:30:49;31.23;;;9.90;;
38935;SDS011;25541;47.458;9.644;2022-12-18T05:33:16;25.88;;;8.68;;
38935;SDS011;25541;47.458;9.644;2022-12-18T05:35:42;25.35;;;8.57;;
38935;SDS011;25541;47.458;9.644;2022-12-18T05:38:08;32.08;;;9.43;;
38935;SDS011;25541;47.458;9.644;2022-12-18T05:40:34;26.65;;;8.80;;
38935;SDS011;25541;47.458;9.644;2022-12-18T05:42:59;25.58;;;8.75;;
38935;SDS011;25541;47.458;9.644;2022-12-18T05:45:25;28.63;;;8.90;;
38935;SDS011;25541;47.458;9.644;2022-12-18T05:47:51;27.17;;;8.88;;
38935;SDS011;25541;47.458;9.644;2022-12-18T05:50:16;29.83;;;9.48;;
38935;SDS011;25541;47.458;9.644;2022-12-18T05:52:42;26.00;;;7.80;;
38935;SDS011;25541;47.458;9.644;2022-12-18T05:55:08;24.65;;;8.07;;
38935;SDS011;25541;47.458;9.644;2022-12-18T05:57:33;27.33;;;8.55;;
38935;SDS011;25541;47.458;9.644;2022-12-18T05:59:59;30.98;;;9.00;;
38935;SDS011;25541;47.458;9.644;2022-12-18T06:02:25;27.38;;;8.15;;
38935;SDS011;25541;47.458;9.644;2022-12-18T06:04:50;24.85;;;8.52;;
38935;SDS011;25541;47.458;9.644;2022-12-18T06:07:16;27.13;;;8.00;;
38935;SDS011;25541;47.458;9.644;2022-12-18T06:09:42;24.95;;;8.80;;
38935;SDS011;25541;47.458;9.644;2022-12-18T06:12:08;23.35;;;7.70;;
38935;SDS011;25541;47.458;9.644;2022-12-18T06:14:34;28.75;;;8.50;;
38935;SDS011;25541;47.458;9.644;2022-12-18T06:16:59;23.25;;;7.82;;
38935;SDS011;25541;47.458;9.644;2022-12-18T06:19:25;23.92;;;7.43;;
38935;SDS011;25541;47.458;9.644;2022-12-18T06:21:51;26.38;;;8.50;;
38935;SDS011;25541;47.458;9.644;2022-12-18T06:24:16;22.33;;;7.22;;
38935;SDS011;25541;47.458;9.644;2022-12-18T06:26:42;24.33;;;7.80;;
38935;SDS011;25541;47.458;9.644;2022-12-18T06:29:08;26.38;;;7.57;;
38935;SDS011;25541;47.458;9.644;2022-12-18T06:31:33;20.00;;;6.85;;
38935;SDS011;25541;47.458;9.644;2022-12-18T06:34:01;24.38;;;7.47;;
38935;SDS011;25541;47.458;9.644;2022-12-18T06:36:27;24.15;;;7.30;;
38935;SDS011;25541;47.458;9.644;2022-12-18T06:38:54;23.33;;;7.07;;
38935;SDS011;25541;47.458;9.644;2022-12-18T06:41:22;23.15;;;7.63;;
38935;SDS011;25541;47.458;9.644;2022-12-18T06:43:48;23.58;;;7.03;;
38935;SDS011;25541;47.458;9.644;2022-12-18T06:46:13;22.75;;;7.32;;
38935;SDS011;25541;47.458;9.644;2022-12-18T06:48:39;25.65;;;7.93;;
38935;SDS011;25541;47.458;9.644;2022-12-18T06:51:05;23.95;;;7.35;;
38935;SDS011;25541;47.458;9.644;2022-12-18T06:53:31;23.25;;;7.45;;
38935;SDS011;25541;47.458;9.644;2022-12-18T06:56:01;24.05;;;7.25;;
38935;SDS011;25541;47.458;9.644;2022-12-18T06:58:28;19.42;;;6.65;;
38935;SDS011;25541;47.458;9.644;2022-12-18T07:00:54;22.48;;;8.10;;
38935;SDS011;25541;47.458;9.644;2022-12-18T07:03:25;23.33;;;6.53;;
38935;SDS011;25541;47.458;9.644;2022-12-18T07:05:50;24.08;;;7.88;;
38935;SDS011;25541;47.458;9.644;2022-12-18T07:08:16;26.15;;;8.27;;
38935;SDS011;25541;47.458;9.644;2022-12-18T07:10:42;26.67;;;8.43;;
38935;SDS011;25541;47.458;9.644;2022-12-18T07:13:08;26.95;;;8.40;;
38935;SDS011;25541;47.458;9.644;2022-12-18T07:15:34;25.02;;;8.70;;
38935;SDS011;25541;47.458;9.644;2022-12-18T07:18:00;26.48;;;7.70;;
38935;SDS011;25541;47.458;9.644;2022-12-18T07:20:25;30.40;;;9.27;;
38935;SDS011;25541;47.458;9.644;2022-12-18T07:22:51;28.15;;;8.23;;
38935;SDS011;25541;47.458;9.644;2022-12-18T07:25:17;29.60;;;8.60;;
38935;SDS011;25541;47.458;9.644;2022-12-18T07:27:42;29.15;;;9.38;;
38935;SDS011;25541;47.458;9.644;2022-12-18T07:30:08;30.70;;;9.60;;
38935;SDS011;25541;47.458;9.644;2022-12-18T07:32:34;26.20;;;8.27;;
38935;SDS011;25541;47.458;9.644;2022-12-18T07:35:00;25.17;;;7.82;;
38935;SDS011;25541;47.458;9.644;2022-12-18T07:37:26;22.75;;;7.20;;
38935;SDS011;25541;47.458;9.644;2022-12-18T07:39:51;22.48;;;8.00;;
38935;SDS011;25541;47.458;9.644;2022-12-18T07:42:17;23.88;;;8.05;;
38935;SDS011;25541;47.458;9.644;2022-12-18T07:44:58;22.52;;;7.53;;
38935;SDS011;25541;47.458;9.644;2022-12-18T07:47:25;28.15;;;8.82;;
38935;SDS011;25541;47.458;9.644;2022-12-18T07:49:51;24.13;;;9.10;;
38935;SDS011;25541;47.458;9.644;2022-12-18T07:52:16;26.88;;;8.07;;
38935;SDS011;25541;47.458;9.644;2022-12-18T07:54:42;25.85;;;8.98;;
38935;SDS011;25541;47.458;9.644;2022-12-18T07:57:08;25.40;;;8.38;;
38935;SDS011;25541;47.458;9.644;2022-12-18T07:59:34;23.73;;;7.78;;
38935;SDS011;25541;47.458;9.644;2022-12-18T08:02:00;22.90;;;7.50;;
38935;SDS011;25541;47.458;9.644;2022-12-18T08:04:25;22.30;;;7.20;;
38935;SDS011;25541;47.458;9.644;2022-12-18T08:06:52;18.88;;;6.32;;
38935;SDS011;25541;47.458;9.644;2022-12-18T08:09:17;20.65;;;6.60;;
38935;SDS011;25541;47.458;9.644;2022-12-18T08:11:43;21.88;;;6.88;;
38935;SDS011;25541;47.458;9.644;2022-12-18T08:14:09;21.45;;;7.00;;
38935;SDS011;25541;47.458;9.644;2022-12-18T08:16:35;22.50;;;7.00;;
38935;SDS011;25541;47.458;9.644;2022-12-18T08:19:01;21.60;;;7.15;;
38935;SDS011;25541;47.458;9.644;2022-12-18T08:21:28;22.98;;;7.15;;
38935;SDS011;25541;47.458;9.644;2022-12-18T08:23:55;24.90;;;8.55;;
38935;SDS011;25541;47.458;9.644;2022-12-18T08:26:23;25.15;;;8.63;;
38935;SDS011;25541;47.458;9.644;2022-12-18T08:28:50;25.88;;;8.30;;
38935;SDS011;25541;47.458;9.644;2022-12-18T08:31:16;27.88;;;8.52;;
38935;SDS011;25541;47.458;9.644;2022-12-18T08:33:42;24.10;;;8.65;;
38935;SDS011;25541;47.458;9.644;2022-12-18T08:36:08;27.63;;;8.85;;
38935;SDS011;25541;47.458;9.644;2022-12-18T08:38:35;25.92;;;8.77;;
38935;SDS011;25541;47.458;9.644;2022-12-18T08:41:05;25.10;;;8.77;;
38935;SDS011;25541;47.458;9.644;2022-12-18T08:43:32;25.90;;;8.68;;
38935;SDS011;25541;47.458;9.644;2022-12-18T08:46:16;29.02;;;8.48;;
38935;SDS011;25541;47.458;9.644;2022-12-18T08:48:43;23.83;;;8.30;;
38935;SDS011;25541;47.458;9.644;2022-12-18T08:51:09;23.88;;;8.20;;
38935;SDS011;25541;47.458;9.644;2022-12-18T08:53:35;24.02;;;8.13;;
38935;SDS011;25541;47.458;9.644;2022-12-18T08:56:01;22.67;;;8.18;;
38935;SDS011;25541;47.458;9.644;2022-12-18T08:58:28;20.65;;;7.63;;
38935;SDS011;25541;47.458;9.644;2022-12-18T09:00:54;21.73;;;7.90;;
38935;SDS011;25541;47.458;9.644;2022-12-18T09:03:24;22.48;;;7.80;;
38935;SDS011;25541;47.458;9.644;2022-12-18T09:05:49;22.10;;;7.75;;
38935;SDS011;25541;47.458;9.644;2022-12-18T09:08:15;19.08;;;7.80;;
38935;SDS011;25541;47.458;9.644;2022-12-18T09:10:41;19.17;;;7.60;;
38935;SDS011;25541;47.458;9.644;2022-12-18T09:13:11;19.23;;;7.63;;
38935;SDS011;25541;47.458;9.644;2022-12-18T09:15:44;22.75;;;8.68;;
38935;SDS011;25541;47.458;9.644;2022-12-18T09:18:12;20.50;;;7.53;;
38935;SDS011;25541;47.458;9.644;2022-12-18T09:20:39;18.63;;;8.27;;
38935;SDS011;25541;47.458;9.644;2022-12-18T09:23:05;20.98;;;8.25;;
38935;SDS011;25541;47.458;9.644;2022-12-18T09:25:31;20.25;;;8.18;;
38935;SDS011;25541;47.458;9.644;2022-12-18T09:28:14;17.25;;;7.60;;
38935;SDS011;25541;47.458;9.644;2022-12-18T09:30:42;19.13;;;7.47;;
38935;SDS011;25541;47.458;9.644;2022-12-18T09:33:13;21.17;;;8.02;;
38935;SDS011;25541;47.458;9.644;2022-12-18T09:35:40;18.98;;;7.57;;
38935;SDS011;25541;47.458;9.644;2022-12-18T09:38:08;20.63;;;8.57;;
38935;SDS011;25541;47.458;9.644;2022-12-18T09:40:41;21.10;;;7.97;;
38935;SDS011;25541;47.458;9.644;2022-12-18T09:43:13;20.50;;;8.40;;
38935;SDS011;25541;47.458;9.644;2022-12-18T09:45:46;23.48;;;8.07;;
38935;SDS011;25541;47.458;9.644;2022-12-18T09:48:21;19.75;;;7.88;;
38935;SDS011;25541;47.458;9.644;2022-12-18T09:50:50;21.73;;;7.45;;
38935;SDS011;25541;47.458;9.644;2022-12-18T09:53:22;26.48;;;7.95;;
38935;SDS011;25541;47.458;9.644;2022-12-18T09:55:52;19.50;;;7.97;;
38935;SDS011;25541;47.458;9.644;2022-12-18T10:01:06;23.73;;;8.30;;
38935;SDS011;25541;47.458;9.644;2022-12-18T10:03:43;23.10;;;8.18;;
38935;SDS011;25541;47.458;9.644;2022-12-18T10:06:18;21.80;;;7.82;;
38935;SDS011;25541;47.458;9.644;2022-12-18T10:17:05;21.35;;;7.97;;
38935;SDS011;25541;47.458;9.644;2022-12-18T10:22:57;21.92;;;7.60;;
38935;SDS011;25541;47.458;9.644;2022-12-18T10:25:34;23.25;;;8.13;;
38935;SDS011;25541;47.458;9.644;2022-12-18T10:28:10;24.02;;;8.40;;
38935;SDS011;25541;47.458;9.644;2022-12-18T10:30:38;22.83;;;8.48;;
38935;SDS011;25541;47.458;9.644;2022-12-18T10:33:05;21.75;;;8.15;;
38935;SDS011;25541;47.458;9.644;2022-12-18T10:35:31;26.48;;;9.63;;
38935;SDS011;25541;47.458;9.644;2022-12-18T10:38:39;23.45;;;8.52;;
38935;SDS011;25541;47.458;9.644;2022-12-18T10:41:32;23.10;;;7.80;;
38935;SDS011;25541;47.458;9.644;2022-12-18T10:43:42;23.88;;;8.38;;
38935;SDS011;25541;47.458;9.644;2022-12-18T10:48:40;26.27;;;8.82;;
38935;SDS011;25541;47.458;9.644;2022-12-18T10:51:07;25.20;;;8.57;;
38935;SDS011;25541;47.458;9.644;2022-12-18T10:53:34;25.88;;;9.00;;
38935;SDS011;25541;47.458;9.644;2022-12-18T10:56:02;24.83;;;9.05;;
38935;SDS011;25541;47.458;9.644;2022-12-18T10:58:30;28.17;;;9.65;;
38935;SDS011;25541;47.458;9.644;2022-12-18T11:01:16;26.73;;;9.63;;
38935;SDS011;25541;47.458;9.644;2022-12-18T11:06:21;27.23;;;9.80;;
38935;SDS011;25541;47.458;9.644;2022-12-18T11:11:47;29.10;;;9.32;;
38935;SDS011;25541;47.458;9.644;2022-12-18T11:14:22;30.02;;;9.75;;
38935;SDS011;25541;47.458;9.644;2022-12-18T11:16:59;27.75;;;9.73;;
38935;SDS011;25541;47.458;9.644;2022-12-18T11:19:38;24.73;;;9.30;;
38935;SDS011;25541;47.458;9.644;2022-12-18T11:24:58;26.10;;;9.93;;
38935;SDS011;25541;47.458;9.644;2022-12-18T11:27:24;25.35;;;9.63;;
38935;SDS011;25541;47.458;9.644;2022-12-18T11:29:52;28.58;;;10.18;;
38935;SDS011;25541;47.458;9.644;2022-12-18T11:32:21;26.95;;;10.20;;
38935;SDS011;25541;47.458;9.644;2022-12-18T11:35:13;25.95;;;10.30;;
38935;SDS011;25541;47.458;9.644;2022-12-18T11:38:43;29.23;;;9.90;;
38935;SDS011;25541;47.458;9.644;2022-12-18T11:40:56;26.38;;;9.95;;
38935;SDS011;25541;47.458;9.644;2022-12-18T11:43:48;28.15;;;10.18;;
38935;SDS011;25541;47.458;9.644;2022-12-18T11:46:23;27.95;;;10.02;;
38935;SDS011;25541;47.458;9.644;2022-12-18T11:52:01;26.52;;;9.20;;
38935;SDS011;25541;47.458;9.644;2022-12-18T11:54:46;29.33;;;9.40;;
38935;SDS011;25541;47.458;9.644;2022-12-18T11:57:19;23.25;;;8.95;;
38935;SDS011;25541;47.458;9.644;2022-12-18T12:13:44;24.33;;;8.95;;
38935;SDS011;25541;47.458;9.644;2022-12-18T12:16:16;23.60;;;8.38;;
38935;SDS011;25541;47.458;9.644;2022-12-18T12:18:51;25.75;;;8.90;;
38935;SDS011;25541;47.458;9.644;2022-12-18T12:27:04;23.27;;;7.78;;
38935;SDS011;25541;47.458;9.644;2022-12-18T12:38:00;25.98;;;9.73;;
38935;SDS011;25541;47.458;9.644;2022-12-18T12:40:30;26.48;;;9.05;;
38935;SDS011;25541;47.458;9.644;2022-12-18T12:43:16;29.05;;;9.80;;
38935;SDS011;25541;47.458;9.644;2022-12-18T12:51:21;22.42;;;8.75;;
38935;SDS011;25541;47.458;9.644;2022-12-18T12:53:50;26.65;;;9.52;;
38935;SDS011;25541;47.458;9.644;2022-12-18T12:56:19;25.73;;;9.07;;
38935;SDS011;25541;47.458;9.644;2022-12-18T12:58:52;27.17;;;9.90;;
38935;SDS011;25541;47.458;9.644;2022-12-18T13:01:37;24.45;;;9.55;;
38935;SDS011;25541;47.458;9.644;2022-12-18T13:04:22;21.98;;;8.52;;
38935;SDS011;25541;47.458;9.644;2022-12-18T13:07:08;25.27;;;8.80;;
38935;SDS011;25541;47.458;9.644;2022-12-18T13:12:57;29.20;;;7.97;;
38935;SDS011;25541;47.458;9.644;2022-12-18T13:20:36;25.40;;;9.00;;
38935;SDS011;25541;47.458;9.644;2022-12-18T13:28:17;23.40;;;8.35;;
38935;SDS011;25541;47.458;9.644;2022-12-18T13:30:56;24.83;;;9.38;;
38935;SDS011;25541;47.458;9.644;2022-12-18T13:35:55;26.23;;;8.95;;
38935;SDS011;25541;47.458;9.644;2022-12-18T13:38:34;23.92;;;8.45;;
38935;SDS011;25541;47.458;9.644;2022-12-18T13:41:02;24.60;;;8.82;;
38935;SDS011;25541;47.458;9.644;2022-12-18T13:43:50;26.20;;;9.35;;
38935;SDS011;25541;47.458;9.644;2022-12-18T13:48:49;27.55;;;9.90;;
38935;SDS011;25541;47.458;9.644;2022-12-18T13:51:16;25.83;;;9.77;;
38935;SDS011;25541;47.458;9.644;2022-12-18T13:53:47;29.75;;;10.35;;
38935;SDS011;25541;47.458;9.644;2022-12-18T13:56:23;31.38;;;10.18;;
38935;SDS011;25541;47.458;9.644;2022-12-18T13:59:03;27.52;;;10.10;;
38935;SDS011;25541;47.458;9.644;2022-12-18T14:01:35;29.90;;;10.25;;
38935;SDS011;25541;47.458;9.644;2022-12-18T14:07:06;28.20;;;10.35;;
38935;SDS011;25541;47.458;9.644;2022-12-18T14:09:36;28.67;;;10.57;;
38935;SDS011;25541;47.458;9.644;2022-12-18T14:12:18;29.30;;;9.82;;
38935;SDS011;25541;47.458;9.644;2022-12-18T14:15:09;27.85;;;9.80;;
38935;SDS011;25541;47.458;9.644;2022-12-18T14:18:01;25.92;;;9.35;;
38935;SDS011;25541;47.458;9.644;2022-12-18T14:20:39;28.80;;;9.88;;
38935;SDS011;25541;47.458;9.644;2022-12-18T14:26:01;28.48;;;10.07;;
38935;SDS011;25541;47.458;9.644;2022-12-18T14:28:28;30.95;;;10.07;;
38935;SDS011;25541;47.458;9.644;2022-12-18T14:30:54;29.67;;;9.02;;
38935;SDS011;25541;47.458;9.644;2022-12-18T14:33:25;30.95;;;9.85;;
38935;SDS011;25541;47.458;9.644;2022-12-18T14:36:03;28.90;;;9.77;;
38935;SDS011;25541;47.458;9.644;2022-12-18T14:38:39;26.75;;;8.43;;
38935;SDS011;25541;47.458;9.644;2022-12-18T14:41:12;29.27;;;8.98;;
38935;SDS011;25541;47.458;9.644;2022-12-18T14:43:40;31.13;;;11.05;;
38935;SDS011;25541;47.458;9.644;2022-12-18T14:49:03;26.80;;;8.82;;
38935;SDS011;25541;47.458;9.644;2022-12-18T14:51:42;25.55;;;9.60;;
38935;SDS011;25541;47.458;9.644;2022-12-18T14:54:23;26.67;;;9.18;;
38935;SDS011;25541;47.458;9.644;2022-12-18T14:56:51;29.67;;;9.10;;
38935;SDS011;25541;47.458;9.644;2022-12-18T14:59:24;25.55;;;9.05;;
38935;SDS011;25541;47.458;9.644;2022-12-18T15:02:34;23.80;;;8.75;;
38935;SDS011;25541;47.458;9.644;2022-12-18T15:04:46;25.05;;;8.30;;
38935;SDS011;25541;47.458;9.644;2022-12-18T15:07:19;24.77;;;8.38;;
38935;SDS011;25541;47.458;9.644;2022-12-18T15:12:38;23.42;;;8.10;;
38935;SDS011;25541;47.458;9.644;2022-12-18T15:25:40;29.60;;;9.00;;
38935;SDS011;25541;47.458;9.644;2022-12-18T15:28:25;26.58;;;8.50;;
38935;SDS011;25541;47.458;9.644;2022-12-18T15:33:41;33.40;;;9.77;;
38935;SDS011;25541;47.458;9.644;2022-12-18T15:36:12;31.70;;;10.93;;
38935;SDS011;25541;47.458;9.644;2022-12-18T15:38:40;24.90;;;8.75;;
38935;SDS011;25541;47.458;9.644;2022-12-18T15:41:06;27.52;;;8.82;;
38935;SDS011;25541;47.458;9.644;2022-12-18T15:43:38;24.67;;;8.30;;
38935;SDS011;25541;47.458;9.644;2022-12-18T15:46:26;29.50;;;9.07;;
38935;SDS011;25541;47.458;9.644;2022-12-18T15:48:56;26.52;;;8.90;;
38935;SDS011;25541;47.458;9.644;2022-12-18T15:54:02;26.90;;;8.48;;
38935;SDS011;25541;47.458;9.644;2022-12-18T15:56:30;26.90;;;9.07;;
38935;SDS011;25541;47.458;9.644;2022-12-18T15:59:18;27.05;;;9.63;;
38935;SDS011;25541;47.458;9.644;2022-12-18T16:01:45;32.15;;;10.13;;
38935;SDS011;25541;47.458;9.644;2022-12-18T16:04:14;29.77;;;10.25;;
38935;SDS011;25541;47.458;9.644;2022-12-18T16:06:41;28.35;;;9.25;;
38935;SDS011;25541;47.458;9.644;2022-12-18T16:09:07;25.77;;;8.95;;
38935;SDS011;25541;47.458;9.644;2022-12-18T16:11:33;26.92;;;8.73;;
38935;SDS011;25541;47.458;9.644;2022-12-18T16:16:46;28.70;;;8.80;;
38935;SDS011;25541;47.458;9.644;2022-12-18T16:19:14;24.15;;;7.68;;
38935;SDS011;25541;47.458;9.644;2022-12-18T16:21:41;24.55;;;7.45;;
38935;SDS011;25541;47.458;9.644;2022-12-18T16:24:40;26.10;;;7.68;;
38935;SDS011;25541;47.458;9.644;2022-12-18T16:27:01;27.30;;;8.27;;
38935;SDS011;25541;47.458;9.644;2022-12-18T16:29:27;22.38;;;7.97;;
38935;SDS011;25541;47.458;9.644;2022-12-18T16:31:57;26.92;;;8.45;;
38935;SDS011;25541;47.458;9.644;2022-12-18T16:34:27;25.73;;;8.85;;
38935;SDS011;25541;47.458;9.644;2022-12-18T16:36:55;27.45;;;9.65;;
38935;SDS011;25541;47.458;9.644;2022-12-18T16:39:23;27.77;;;9.35;;
38935;SDS011;25541;47.458;9.644;2022-12-18T16:41:49;28.63;;;9.70;;
38935;SDS011;25541;47.458;9.644;2022-12-18T16:44:14;33.38;;;9.73;;
38935;SDS011;25541;47.458;9.644;2022-12-18T16:46:40;28.33;;;9.15;;
38935;SDS011;25541;47.458;9.644;2022-12-18T16:49:16;28.80;;;9.88;;
38935;SDS011;25541;47.458;9.644;2022-12-18T16:51:43;27.27;;;8.88;;
38935;SDS011;25541;47.458;9.644;2022-12-18T16:54:12;31.13;;;10.55;;
38935;SDS011;25541;47.458;9.644;2022-12-18T16:56:38;33.33;;;10.55;;
38935;SDS011;25541;47.458;9.644;2022-12-18T16:59:04;34.00;;;9.45;;
38935;SDS011;25541;47.458;9.644;2022-12-18T17:01:30;29.05;;;9.82;;
38935;SDS011;25541;47.458;9.644;2022-12-18T17:03:59;38.67;;;15.02;;
38935;SDS011;25541;47.458;9.644;2022-12-18T17:06:27;40.42;;;12.63;;
38935;SDS011;25541;47.458;9.644;2022-12-18T17:08:57;35.70;;;11.15;;
38935;SDS011;25541;47.458;9.644;2022-12-18T17:11:24;34.65;;;11.20;;
38935;SDS011;25541;47.458;9.644;2022-12-18T17:13:52;30.95;;;10.55;;
38935;SDS011;25541;47.458;9.644;2022-12-18T17:16:19;35.92;;;10.52;;
38935;SDS011;25541;47.458;9.644;2022-12-18T17:18:46;32.88;;;10.18;;
38935;SDS011;25541;47.458;9.644;2022-12-18T17:21:12;31.42;;;10.80;;
38935;SDS011;25541;47.458;9.644;2022-12-18T17:23:40;32.95;;;9.88;;
38935;SDS011;25541;47.458;9.644;2022-12-18T17:26:06;32.83;;;10.48;;
38935;SDS011;25541;47.458;9.644;2022-12-18T17:28:34;33.83;;;10.77;;
38935;SDS011;25541;47.458;9.644;2022-12-18T17:31:02;36.60;;;11.50;;
38935;SDS011;25541;47.458;9.644;2022-12-18T17:33:38;34.35;;;10.80;;
38935;SDS011;25541;47.458;9.644;2022-12-18T17:36:04;34.70;;;11.52;;
38935;SDS011;25541;47.458;9.644;2022-12-18T17:38:30;36.58;;;11.32;;
38935;SDS011;25541;47.458;9.644;2022-12-18T17:41:01;33.75;;;11.93;;
38935;SDS011;25541;47.458;9.644;2022-12-18T17:43:30;37.03;;;11.23;;
38935;SDS011;25541;47.458;9.644;2022-12-18T17:46:02;38.00;;;11.25;;
38935;SDS011;25541;47.458;9.644;2022-12-18T17:48:31;32.17;;;11.68;;
38935;SDS011;25541;47.458;9.644;2022-12-18T17:51:01;32.25;;;11.07;;
38935;SDS011;25541;47.458;9.644;2022-12-18T17:53:29;36.38;;;11.73;;
38935;SDS011;25541;47.458;9.644;2022-12-18T17:55:56;32.83;;;11.98;;
38935;SDS011;25541;47.458;9.644;2022-12-18T17:58:25;36.92;;;11.63;;
38935;SDS011;25541;47.458;9.644;2022-12-18T18:00:51;34.10;;;12.23;;
38935;SDS011;25541;47.458;9.644;2022-12-18T18:03:18;32.83;;;11.25;;
38935;SDS011;25541;47.458;9.644;2022-12-18T18:05:44;34.22;;;12.00;;
38935;SDS011;25541;47.458;9.644;2022-12-18T18:08:09;35.00;;;11.90;;
38935;SDS011;25541;47.458;9.644;2022-12-18T18:10:36;34.50;;;11.77;;
38935;SDS011;25541;47.458;9.644;2022-12-18T18:13:03;33.17;;;11.20;;
38935;SDS011;25541;47.458;9.644;2022-12-18T18:15:55;32.60;;;11.02;;
38935;SDS011;25541;47.458;9.644;2022-12-18T18:18:21;35.03;;;11.93;;
38935;SDS011;25541;47.458;9.644;2022-12-18T18:20:47;30.90;;;11.77;;
38935;SDS011;25541;47.458;9.644;2022-12-18T18:23:13;35.08;;;11.95;;
38935;SDS011;25541;47.458;9.644;2022-12-18T18:25:38;34.20;;;10.93;;
38935;SDS011;25541;47.458;9.644;2022-12-18T18:28:04;38.05;;;13.57;;
38935;SDS011;25541;47.458;9.644;2022-12-18T18:30:29;36.83;;;14.02;;
38935;SDS011;25541;47.458;9.644;2022-12-18T18:32:55;32.83;;;12.05;;
38935;SDS011;25541;47.458;9.644;2022-12-18T18:35:21;33.85;;;12.40;;
38935;SDS011;25541;47.458;9.644;2022-12-18T18:37:47;36.35;;;11.85;;
38935;SDS011;25541;47.458;9.644;2022-12-18T18:40:13;36.33;;;11.20;;
38935;SDS011;25541;47.458;9.644;2022-12-18T18:42:39;36.83;;;11.73;;
38935;SDS011;25541;47.458;9.644;2022-12-18T18:45:05;35.47;;;12.13;;
38935;SDS011;25541;47.458;9.644;2022-12-18T18:47:31;35.55;;;11.43;;
38935;SDS011;25541;47.458;9.644;2022-12-18T18:49:56;34.75;;;11.70;;
38935;SDS011;25541;47.458;9.644;2022-12-18T18:52:22;35.10;;;11.95;;
38935;SDS011;25541;47.458;9.644;2022-12-18T18:54:48;35.45;;;11.60;;
38935;SDS011;25541;47.458;9.644;2022-12-18T18:57:14;39.38;;;12.57;;
38935;SDS011;25541;47.458;9.644;2022-12-18T18:59:40;40.17;;;12.05;;
38935;SDS011;25541;47.458;9.644;2022-12-18T19:02:08;34.80;;;11.15;;
38935;SDS011;25541;47.458;9.644;2022-12-18T19:04:37;35.63;;;12.13;;
38935;SDS011;25541;47.458;9.644;2022-12-18T19:07:04;32.78;;;11.38;;
38935;SDS011;25541;47.458;9.644;2022-12-18T19:09:30;39.50;;;11.80;;
38935;SDS011;25541;47.458;9.644;2022-12-18T19:11:56;37.25;;;12.57;;
38935;SDS011;25541;47.458;9.644;2022-12-18T19:14:41;37.25;;;12.20;;
38935;SDS011;25541;47.458;9.644;2022-12-18T19:17:07;39.38;;;12.52;;
38935;SDS011;25541;47.458;9.644;2022-12-18T19:19:33;41.33;;;13.55;;
38935;SDS011;25541;47.458;9.644;2022-12-18T19:21:58;39.55;;;13.30;;
38935;SDS011;25541;47.458;9.644;2022-12-18T19:24:24;39.55;;;13.70;;
38935;SDS011;25541;47.458;9.644;2022-12-18T19:26:50;37.60;;;12.98;;
38935;SDS011;25541;47.458;9.644;2022-12-18T19:29:16;42.47;;;13.80;;
38935;SDS011;25541;47.458;9.644;2022-12-18T19:31:42;40.03;;;13.43;;
38935;SDS011;25541;47.458;9.644;2022-12-18T19:34:08;45.97;;;14.20;;
38935;SDS011;25541;47.458;9.644;2022-12-18T19:36:36;43.38;;;13.88;;
38935;SDS011;25541;47.458;9.644;2022-12-18T19:39:21;38.50;;;12.52;;
38935;SDS011;25541;47.458;9.644;2022-12-18T19:41:47;39.08;;;13.38;;
38935;SDS011;25541;47.458;9.644;2022-12-18T19:44:14;39.08;;;13.10;;
38935;SDS011;25541;47.458;9.644;2022-12-18T19:46:40;35.67;;;11.38;;
38935;SDS011;25541;47.458;9.644;2022-12-18T19:49:07;35.83;;;12.85;;
38935;SDS011;25541;47.458;9.644;2022-12-18T19:51:36;38.03;;;12.38;;
38935;SDS011;25541;47.458;9.644;2022-12-18T19:54:03;35.28;;;11.55;;
38935;SDS011;25541;47.458;9.644;2022-12-18T19:56:30;38.83;;;13.00;;
38935;SDS011;25541;47.458;9.644;2022-12-18T19:58:57;36.88;;;13.52;;
38935;SDS011;25541;47.458;9.644;2022-12-18T20:01:23;40.90;;;13.68;;
38935;SDS011;25541;47.458;9.644;2022-12-18T20:03:50;38.25;;;13.55;;
38935;SDS011;25541;47.458;9.644;2022-12-18T20:08:56;39.17;;;13.18;;
38935;SDS011;25541;47.458;9.644;2022-12-18T20:11:24;39.25;;;13.82;;
38935;SDS011;25541;47.458;9.644;2022-12-18T20:13:49;40.53;;;14.25;;
38935;SDS011;25541;47.458;9.644;2022-12-18T20:16:15;38.50;;;13.70;;
38935;SDS011;25541;47.458;9.644;2022-12-18T20:18:41;36.45;;;12.52;;
38935;SDS011;25541;47.458;9.644;2022-12-18T20:21:06;34.25;;;12.40;;
38935;SDS011;25541;47.458;9.644;2022-12-18T20:23:32;38.22;;;13.35;;
38935;SDS011;25541;47.458;9.644;2022-12-18T20:25:58;39.70;;;13.75;;
38935;SDS011;25541;47.458;9.644;2022-12-18T20:28:24;36.47;;;12.95;;
38935;SDS011;25541;47.458;9.644;2022-12-18T20:30:50;40.30;;;13.93;;
38935;SDS011;25541;47.458;9.644;2022-12-18T20:33:22;39.85;;;13.15;;
38935;SDS011;25541;47.458;9.644;2022-12-18T20:35:47;39.58;;;13.40;;
38935;SDS011;25541;47.458;9.644;2022-12-18T20:38:13;39.03;;;13.63;;
38935;SDS011;25541;47.458;9.644;2022-12-18T20:40:39;40.15;;;12.95;;
38935;SDS011;25541;47.458;9.644;2022-12-18T20:43:06;41.28;;;13.23;;
38935;SDS011;25541;47.458;9.644;2022-12-18T20:45:32;37.63;;;13.25;;
38935;SDS011;25541;47.458;9.644;2022-12-18T20:47:57;42.67;;;13.18;;
38935;SDS011;25541;47.458;9.644;2022-12-18T20:50:25;35.97;;;12.98;;
38935;SDS011;25541;47.458;9.644;2022-12-18T20:52:50;38.47;;;13.48;;
38935;SDS011;25541;47.458;9.644;2022-12-18T20:55:16;38.13;;;12.82;;
38935;SDS011;25541;47.458;9.644;2022-12-18T20:57:42;39.10;;;12.95;;
38935;SDS011;25541;47.458;9.644;2022-12-18T21:00:08;32.35;;;12.05;;
38935;SDS011;25541;47.458;9.644;2022-12-18T21:02:35;39.42;;;12.52;;
38935;SDS011;25541;47.458;9.644;2022-12-18T21:05:00;37.58;;;12.05;;
38935;SDS011;25541;47.458;9.644;2022-12-18T21:07:26;38.08;;;12.27;;
38935;SDS011;25541;47.458;9.644;2022-12-18T21:09:52;44.83;;;13.75;;
38935;SDS011;25541;47.458;9.644;2022-12-18T21:12:18;42.30;;;12.93;;
38935;SDS011;25541;47.458;9.644;2022-12-18T21:14:58;41.50;;;13.38;;
38935;SDS011;25541;47.458;9.644;2022-12-18T21:17:25;44.38;;;13.35;;
38935;SDS011;25541;47.458;9.644;2022-12-18T21:19:51;41.85;;;13.88;;
38935;SDS011;25541;47.458;9.644;2022-12-18T21:22:17;44.50;;;13.43;;
38935;SDS011;25541;47.458;9.644;2022-12-18T21:24:43;41.20;;;13.02;;
38935;SDS011;25541;47.458;9.644;2022-12-18T21:27:08;38.63;;;12.02;;
38935;SDS011;25541;47.458;9.644;2022-12-18T21:29:34;39.40;;;12.93;;
38935;SDS011;25541;47.458;9.644;2022-12-18T21:32:01;41.35;;;13.13;;
38935;SDS011;25541;47.458;9.644;2022-12-18T21:34:28;43.35;;;13.63;;
38935;SDS011;25541;47.458;9.644;2022-12-18T21:36:55;42.17;;;13.63;;
38935;SDS011;25541;47.458;9.644;2022-12-18T21:39:23;41.55;;;13.52;;
38935;SDS011;25541;47.458;9.644;2022-12-18T21:41:49;44.45;;;14.57;;